Antioch, Mississippi
Current Conditions -  °F | °C
As of 6:55 AM on Sunday 21 Dec 2014 (Local Time) from KPIB Reporting Station
Overcast Overcast  
Wind Chill: 37°   Ceiling: 400
Heat Index: 41°   Visibility: 7mi
Dew Point: 37°   Wind: 6mph
Humidity: 87%   Direction: 30°NNE
Pressure: 30.14"   Gusts: NA
Location:  31.6875°N, 89.1116°W
Report Text: KPIB 211255Z AUTO 03005KT 7SM BKN004 OVC009 05/03 A3014 RMK AO1
Loading
Personal Weather Stations






























Interactive Weather Map New forecast layout! Learn more

10-Day Weather Forecast

Advertisements
Track Severe Weather on mobile